sensor_id;sensor_type;location;lat;lon;timestamp;P1;durP1;ratioP1;P2;durP2;ratioP2
21270;SDS011;10795;50.796;3.860;2023-11-22T14:59:39;61.67;;;24.30;;
21270;SDS011;10795;50.796;3.860;2023-11-22T15:02:05;68.07;;;26.20;;
21270;SDS011;10795;50.796;3.860;2023-11-22T15:04:36;64.90;;;27.63;;
21270;SDS011;10795;50.796;3.860;2023-11-22T15:07:03;69.75;;;27.25;;
21270;SDS011;10795;50.796;3.860;2023-11-22T15:09:31;73.97;;;27.35;;
21270;SDS011;10795;50.796;3.860;2023-11-22T15:11:58;69.43;;;27.30;;
21270;SDS011;10795;50.796;3.860;2023-11-22T15:14:27;63.72;;;25.48;;
21270;SDS011;10795;50.796;3.860;2023-11-22T15:16:53;56.60;;;25.05;;
21270;SDS011;10795;50.796;3.860;2023-11-22T15:19:19;49.53;;;23.23;;
21270;SDS011;10795;50.796;3.860;2023-11-22T15:24:17;49.80;;;22.75;;
21270;SDS011;10795;50.796;3.860;2023-11-22T15:26:48;49.00;;;21.33;;
21270;SDS011;10795;50.796;3.860;2023-11-22T15:29:13;44.92;;;21.20;;
21270;SDS011;10795;50.796;3.860;2023-11-22T15:31:41;47.90;;;22.20;;
21270;SDS011;10795;50.796;3.860;2023-11-22T15:34:10;48.22;;;22.63;;
21270;SDS011;10795;50.796;3.860;2023-11-22T15:36:36;51.35;;;22.20;;
21270;SDS011;10795;50.796;3.860;2023-11-22T15:39:02;49.47;;;22.05;;
21270;SDS011;10795;50.796;3.860;2023-11-22T15:41:28;53.80;;;21.88;;
21270;SDS011;10795;50.796;3.860;2023-11-22T15:43:54;46.30;;;21.58;;
21270;SDS011;10795;50.796;3.860;2023-11-22T15:46:20;47.15;;;20.33;;
21270;SDS011;10795;50.796;3.860;2023-11-22T15:48:49;42.88;;;20.77;;
21270;SDS011;10795;50.796;3.860;2023-11-22T15:51:18;37.40;;;18.67;;
21270;SDS011;10795;50.796;3.860;2023-11-22T15:53:47;45.83;;;21.52;;
21270;SDS011;10795;50.796;3.860;2023-11-22T15:56:12;51.00;;;21.77;;
21270;SDS011;10795;50.796;3.860;2023-11-22T15:58:44;45.08;;;21.70;;
21270;SDS011;10795;50.796;3.860;2023-11-22T16:01:11;50.65;;;21.92;;
21270;SDS011;10795;50.796;3.860;2023-11-22T16:03:37;32.45;;;15.48;;
21270;SDS011;10795;50.796;3.860;2023-11-22T16:06:05;50.25;;;22.50;;
21270;SDS011;10795;50.796;3.860;2023-11-22T16:08:33;56.90;;;22.77;;
21270;SDS011;10795;50.796;3.860;2023-11-22T16:11:01;54.33;;;21.77;;
21270;SDS011;10795;50.796;3.860;2023-11-22T16:13:27;50.72;;;22.20;;
21270;SDS011;10795;50.796;3.860;2023-11-22T16:15:53;53.78;;;21.58;;
21270;SDS011;10795;50.796;3.860;2023-11-22T16:18:21;54.33;;;22.33;;
21270;SDS011;10795;50.796;3.860;2023-11-22T16:23:23;51.90;;;21.15;;
21270;SDS011;10795;50.796;3.860;2023-11-22T16:25:49;54.67;;;22.63;;
21270;SDS011;10795;50.796;3.860;2023-11-22T16:28:15;53.67;;;22.67;;
21270;SDS011;10795;50.796;3.860;2023-11-22T16:30:42;53.47;;;22.30;;
21270;SDS011;10795;50.796;3.860;2023-11-22T16:33:11;53.17;;;22.70;;
21270;SDS011;10795;50.796;3.860;2023-11-22T16:35:40;52.25;;;23.63;;
21270;SDS011;10795;50.796;3.860;2023-11-22T16:38:06;48.17;;;22.30;;
21270;SDS011;10795;50.796;3.860;2023-11-22T16:40:32;46.75;;;21.55;;
21270;SDS011;10795;50.796;3.860;2023-11-22T16:43:06;38.67;;;18.13;;
21270;SDS011;10795;50.796;3.860;2023-11-22T16:45:31;45.88;;;20.48;;
21270;SDS011;10795;50.796;3.860;2023-11-22T16:47:57;44.80;;;21.85;;
21270;SDS011;10795;50.796;3.860;2023-11-22T16:50:23;44.80;;;22.08;;
21270;SDS011;10795;50.796;3.860;2023-11-22T16:52:49;46.25;;;21.83;;
21270;SDS011;10795;50.796;3.860;2023-11-22T16:55:15;47.05;;;21.63;;
21270;SDS011;10795;50.796;3.860;2023-11-22T16:57:44;46.00;;;22.77;;
21270;SDS011;10795;50.796;3.860;2023-11-22T17:00:10;45.53;;;20.73;;
21270;SDS011;10795;50.796;3.860;2023-11-22T17:02:46;46.03;;;21.35;;
21270;SDS011;10795;50.796;3.860;2023-11-22T17:05:19;45.03;;;22.35;;
21270;SDS011;10795;50.796;3.860;2023-11-22T17:07:45;43.63;;;21.48;;
21270;SDS011;10795;50.796;3.860;2023-11-22T17:10:11;45.05;;;22.13;;
21270;SDS011;10795;50.796;3.860;2023-11-22T17:12:40;41.80;;;21.52;;
21270;SDS011;10795;50.796;3.860;2023-11-22T17:15:06;46.55;;;22.83;;
21270;SDS011;10795;50.796;3.860;2023-11-22T17:17:35;45.67;;;22.27;;
21270;SDS011;10795;50.796;3.860;2023-11-22T17:20:04;48.13;;;23.40;;
21270;SDS011;10795;50.796;3.860;2023-11-22T17:22:35;47.47;;;23.20;;
21270;SDS011;10795;50.796;3.860;2023-11-22T17:25:04;47.22;;;22.83;;
21270;SDS011;10795;50.796;3.860;2023-11-22T17:27:44;57.22;;;25.67;;
21270;SDS011;10795;50.796;3.860;2023-11-22T17:30:12;47.90;;;21.95;;
21270;SDS011;10795;50.796;3.860;2023-11-22T17:32:41;47.97;;;22.60;;
21270;SDS011;10795;50.796;3.860;2023-11-22T17:35:10;45.20;;;22.85;;
21270;SDS011;10795;50.796;3.860;2023-11-22T17:37:37;43.47;;;22.63;;
21270;SDS011;10795;50.796;3.860;2023-11-22T17:40:03;45.95;;;23.23;;
21270;SDS011;10795;50.796;3.860;2023-11-22T17:42:32;48.17;;;22.17;;
21270;SDS011;10795;50.796;3.860;2023-11-22T17:44:58;42.65;;;21.50;;
21270;SDS011;10795;50.796;3.860;2023-11-22T17:47:23;44.85;;;20.70;;
21270;SDS011;10795;50.796;3.860;2023-11-22T17:49:50;40.45;;;20.95;;
21270;SDS011;10795;50.796;3.860;2023-11-22T17:52:19;43.30;;;21.17;;
21270;SDS011;10795;50.796;3.860;2023-11-22T17:54:44;38.70;;;18.42;;
21270;SDS011;10795;50.796;3.860;2023-11-22T17:57:11;39.50;;;20.55;;
21270;SDS011;10795;50.796;3.860;2023-11-22T17:59:38;40.40;;;20.63;;
21270;SDS011;10795;50.796;3.860;2023-11-22T18:02:06;41.70;;;21.70;;
21270;SDS011;10795;50.796;3.860;2023-11-22T18:04:32;43.20;;;22.38;;
21270;SDS011;10795;50.796;3.860;2023-11-22T18:07:00;35.63;;;18.70;;
21270;SDS011;10795;50.796;3.860;2023-11-22T18:09:26;39.20;;;20.80;;
21270;SDS011;10795;50.796;3.860;2023-11-22T18:11:52;41.53;;;20.10;;
21270;SDS011;10795;50.796;3.860;2023-11-22T18:14:17;37.38;;;19.48;;
21270;SDS011;10795;50.796;3.860;2023-11-22T18:16:46;39.92;;;20.80;;
21270;SDS011;10795;50.796;3.860;2023-11-22T18:19:12;39.88;;;20.85;;
21270;SDS011;10795;50.796;3.860;2023-11-22T18:21:38;36.72;;;18.50;;
21270;SDS011;10795;50.796;3.860;2023-11-22T18:24:05;37.72;;;20.27;;
21270;SDS011;10795;50.796;3.860;2023-11-22T18:26:31;36.95;;;20.10;;
21270;SDS011;10795;50.796;3.860;2023-11-22T18:28:57;40.67;;;20.92;;
21270;SDS011;10795;50.796;3.860;2023-11-22T18:31:23;41.45;;;20.55;;
21270;SDS011;10795;50.796;3.860;2023-11-22T18:33:49;40.35;;;20.85;;
21270;SDS011;10795;50.796;3.860;2023-11-22T18:36:15;44.42;;;21.02;;
21270;SDS011;10795;50.796;3.860;2023-11-22T18:38:43;41.55;;;21.75;;
21270;SDS011;10795;50.796;3.860;2023-11-22T18:41:12;40.15;;;20.10;;
21270;SDS011;10795;50.796;3.860;2023-11-22T18:43:38;35.47;;;18.67;;
21270;SDS011;10795;50.796;3.860;2023-11-22T18:46:04;40.75;;;17.98;;
21270;SDS011;10795;50.796;3.860;2023-11-22T18:48:31;42.10;;;21.60;;
21270;SDS011;10795;50.796;3.860;2023-11-22T18:50:58;42.67;;;21.45;;
21270;SDS011;10795;50.796;3.860;2023-11-22T18:53:24;39.85;;;20.30;;
21270;SDS011;10795;50.796;3.860;2023-11-22T18:55:50;37.63;;;19.45;;
21270;SDS011;10795;50.796;3.860;2023-11-22T18:58:18;33.35;;;17.73;;
21270;SDS011;10795;50.796;3.860;2023-11-22T19:00:44;39.22;;;19.83;;
21270;SDS011;10795;50.796;3.860;2023-11-22T19:03:10;36.67;;;18.30;;
21270;SDS011;10795;50.796;3.860;2023-11-22T19:05:36;37.47;;;18.75;;
21270;SDS011;10795;50.796;3.860;2023-11-22T19:08:04;40.25;;;21.05;;
21270;SDS011;10795;50.796;3.860;2023-11-22T19:10:36;32.05;;;16.67;;
21270;SDS011;10795;50.796;3.860;2023-11-22T19:13:06;34.88;;;18.20;;
21270;SDS011;10795;50.796;3.860;2023-11-22T19:15:50;35.90;;;19.13;;
21270;SDS011;10795;50.796;3.860;2023-11-22T19:18:16;48.03;;;21.08;;
21270;SDS011;10795;50.796;3.860;2023-11-22T19:20:42;38.33;;;19.13;;
21270;SDS011;10795;50.796;3.860;2023-11-22T19:23:08;31.33;;;15.50;;
21270;SDS011;10795;50.796;3.860;2023-11-22T19:25:39;40.15;;;19.63;;
21270;SDS011;10795;50.796;3.860;2023-11-22T19:28:04;39.90;;;19.35;;
21270;SDS011;10795;50.796;3.860;2023-11-22T19:30:31;37.25;;;19.45;;
21270;SDS011;10795;50.796;3.860;2023-11-22T19:33:00;34.87;;;18.73;;
21270;SDS011;10795;50.796;3.860;2023-11-22T19:35:29;37.65;;;17.83;;
21270;SDS011;10795;50.796;3.860;2023-11-22T19:37:55;37.42;;;19.20;;
21270;SDS011;10795;50.796;3.860;2023-11-22T19:40:22;41.45;;;19.85;;
21270;SDS011;10795;50.796;3.860;2023-11-22T19:42:50;36.50;;;18.92;;
21270;SDS011;10795;50.796;3.860;2023-11-22T19:45:24;34.95;;;18.23;;
21270;SDS011;10795;50.796;3.860;2023-11-22T19:47:53;36.53;;;17.45;;
21270;SDS011;10795;50.796;3.860;2023-11-22T19:50:20;34.42;;;16.38;;
21270;SDS011;10795;50.796;3.860;2023-11-22T19:52:48;36.33;;;18.17;;
21270;SDS011;10795;50.796;3.860;2023-11-22T19:55:14;34.53;;;17.33;;
21270;SDS011;10795;50.796;3.860;2023-11-22T19:57:40;37.53;;;18.15;;
21270;SDS011;10795;50.796;3.860;2023-11-22T20:00:12;35.70;;;17.30;;
21270;SDS011;10795;50.796;3.860;2023-11-22T20:02:39;26.67;;;13.75;;
21270;SDS011;10795;50.796;3.860;2023-11-22T20:05:07;28.77;;;15.32;;
21270;SDS011;10795;50.796;3.860;2023-11-22T20:07:34;36.22;;;17.48;;
21270;SDS011;10795;50.796;3.860;2023-11-22T20:10:00;38.30;;;17.58;;
21270;SDS011;10795;50.796;3.860;2023-11-22T20:12:26;35.28;;;16.23;;
21270;SDS011;10795;50.796;3.860;2023-11-22T20:14:55;37.88;;;17.08;;
21270;SDS011;10795;50.796;3.860;2023-11-22T20:17:23;40.22;;;17.30;;
21270;SDS011;10795;50.796;3.860;2023-11-22T20:19:50;36.30;;;18.27;;
21270;SDS011;10795;50.796;3.860;2023-11-22T20:22:16;37.97;;;17.77;;
21270;SDS011;10795;50.796;3.860;2023-11-22T20:24:42;34.28;;;17.55;;
21270;SDS011;10795;50.796;3.860;2023-11-22T20:27:10;35.13;;;17.15;;
21270;SDS011;10795;50.796;3.860;2023-11-22T20:29:40;39.67;;;18.50;;
21270;SDS011;10795;50.796;3.860;2023-11-22T20:32:10;36.75;;;17.23;;
21270;SDS011;10795;50.796;3.860;2023-11-22T20:34:38;37.13;;;16.90;;
21270;SDS011;10795;50.796;3.860;2023-11-22T20:37:06;31.38;;;16.27;;
21270;SDS011;10795;50.796;3.860;2023-11-22T20:39:32;39.05;;;17.75;;
21270;SDS011;10795;50.796;3.860;2023-11-22T20:42:00;37.90;;;17.20;;
21270;SDS011;10795;50.796;3.860;2023-11-22T20:44:28;34.45;;;16.73;;
21270;SDS011;10795;50.796;3.860;2023-11-22T20:46:54;37.38;;;17.13;;
21270;SDS011;10795;50.796;3.860;2023-11-22T20:49:23;34.80;;;16.70;;
21270;SDS011;10795;50.796;3.860;2023-11-22T20:51:51;35.15;;;17.48;;
21270;SDS011;10795;50.796;3.860;2023-11-22T20:54:17;32.50;;;15.98;;
21270;SDS011;10795;50.796;3.860;2023-11-22T20:56:43;33.20;;;15.85;;
21270;SDS011;10795;50.796;3.860;2023-11-22T20:59:09;38.00;;;17.48;;
21270;SDS011;10795;50.796;3.860;2023-11-22T21:01:34;34.95;;;16.95;;
21270;SDS011;10795;50.796;3.860;2023-11-22T21:04:05;33.67;;;16.23;;
21270;SDS011;10795;50.796;3.860;2023-11-22T21:06:33;33.17;;;16.02;;
21270;SDS011;10795;50.796;3.860;2023-11-22T21:09:03;33.40;;;16.27;;
21270;SDS011;10795;50.796;3.860;2023-11-22T21:11:31;32.33;;;16.67;;
21270;SDS011;10795;50.796;3.860;2023-11-22T21:13:58;31.70;;;15.93;;
21270;SDS011;10795;50.796;3.860;2023-11-22T21:16:23;30.55;;;15.98;;
21270;SDS011;10795;50.796;3.860;2023-11-22T21:18:49;33.22;;;17.58;;
21270;SDS011;10795;50.796;3.860;2023-11-22T21:21:16;29.08;;;15.23;;
21270;SDS011;10795;50.796;3.860;2023-11-22T21:23:42;33.10;;;16.30;;
21270;SDS011;10795;50.796;3.860;2023-11-22T21:26:08;29.67;;;15.52;;
21270;SDS011;10795;50.796;3.860;2023-11-22T21:28:34;30.65;;;15.60;;
21270;SDS011;10795;50.796;3.860;2023-11-22T21:31:02;33.65;;;16.33;;
21270;SDS011;10795;50.796;3.860;2023-11-22T21:33:31;32.13;;;15.50;;
21270;SDS011;10795;50.796;3.860;2023-11-22T21:35:57;33.00;;;15.55;;
21270;SDS011;10795;50.796;3.860;2023-11-22T21:38:25;34.58;;;15.77;;
21270;SDS011;10795;50.796;3.860;2023-11-22T21:40:54;35.20;;;15.95;;
21270;SDS011;10795;50.796;3.860;2023-11-22T21:43:20;32.25;;;15.65;;
21270;SDS011;10795;50.796;3.860;2023-11-22T21:45:45;33.60;;;15.98;;
21270;SDS011;10795;50.796;3.860;2023-11-22T21:48:14;32.00;;;15.90;;
21270;SDS011;10795;50.796;3.860;2023-11-22T21:50:39;31.75;;;16.25;;
21270;SDS011;10795;50.796;3.860;2023-11-22T21:53:05;31.13;;;16.38;;
21270;SDS011;10795;50.796;3.860;2023-11-22T21:55:33;33.38;;;16.02;;
21270;SDS011;10795;50.796;3.860;2023-11-22T21:57:59;30.20;;;15.43;;
21270;SDS011;10795;50.796;3.860;2023-11-22T22:00:25;32.40;;;15.65;;
21270;SDS011;10795;50.796;3.860;2023-11-22T22:02:58;31.92;;;16.65;;
21270;SDS011;10795;50.796;3.860;2023-11-22T22:05:24;28.17;;;15.57;;
21270;SDS011;10795;50.796;3.860;2023-11-22T22:07:50;29.25;;;15.07;;
21270;SDS011;10795;50.796;3.860;2023-11-22T22:10:16;27.52;;;15.15;;
21270;SDS011;10795;50.796;3.860;2023-11-22T22:12:42;26.35;;;14.45;;
21270;SDS011;10795;50.796;3.860;2023-11-22T22:15:10;31.05;;;14.68;;
21270;SDS011;10795;50.796;3.860;2023-11-22T22:17:36;27.80;;;14.98;;
21270;SDS011;10795;50.796;3.860;2023-11-22T22:20:05;30.95;;;15.05;;
21270;SDS011;10795;50.796;3.860;2023-11-22T22:22:34;33.05;;;15.20;;
21270;SDS011;10795;50.796;3.860;2023-11-22T22:25:00;27.75;;;14.23;;
21270;SDS011;10795;50.796;3.860;2023-11-22T22:27:29;25.60;;;13.85;;
21270;SDS011;10795;50.796;3.860;2023-11-22T22:29:57;30.35;;;14.85;;
21270;SDS011;10795;50.796;3.860;2023-11-22T22:32:23;24.65;;;13.23;;
21270;SDS011;10795;50.796;3.860;2023-11-22T22:34:48;30.55;;;14.27;;
21270;SDS011;10795;50.796;3.860;2023-11-22T22:37:14;23.65;;;12.35;;
21270;SDS011;10795;50.796;3.860;2023-11-22T22:39:40;23.73;;;13.50;;
21270;SDS011;10795;50.796;3.860;2023-11-22T22:42:08;30.52;;;14.65;;
21270;SDS011;10795;50.796;3.860;2023-11-22T22:44:36;23.05;;;13.02;;
21270;SDS011;10795;50.796;3.860;2023-11-22T22:47:02;28.27;;;14.45;;
21270;SDS011;10795;50.796;3.860;2023-11-22T22:49:28;27.15;;;13.88;;
21270;SDS011;10795;50.796;3.860;2023-11-22T22:51:53;31.55;;;15.50;;
21270;SDS011;10795;50.796;3.860;2023-11-22T22:54:19;28.13;;;14.60;;
21270;SDS011;10795;50.796;3.860;2023-11-22T22:56:45;27.73;;;14.13;;
21270;SDS011;10795;50.796;3.860;2023-11-22T22:59:13;26.52;;;14.35;;
21270;SDS011;10795;50.796;3.860;2023-11-22T23:01:39;32.08;;;14.77;;
21270;SDS011;10795;50.796;3.860;2023-11-22T23:04:05;27.55;;;14.18;;
21270;SDS011;10795;50.796;3.860;2023-11-22T23:06:33;25.90;;;13.88;;
21270;SDS011;10795;50.796;3.860;2023-11-22T23:09:01;27.85;;;14.13;;
21270;SDS011;10795;50.796;3.860;2023-11-22T23:11:27;26.27;;;14.13;;
21270;SDS011;10795;50.796;3.860;2023-11-22T23:13:53;30.13;;;13.60;;
21270;SDS011;10795;50.796;3.860;2023-11-22T23:16:19;28.38;;;14.60;;
21270;SDS011;10795;50.796;3.860;2023-11-22T23:18:47;27.30;;;13.80;;
21270;SDS011;10795;50.796;3.860;2023-11-22T23:21:12;28.92;;;14.23;;
21270;SDS011;10795;50.796;3.860;2023-11-22T23:23:41;30.17;;;14.00;;
21270;SDS011;10795;50.796;3.860;2023-11-22T23:26:10;25.30;;;14.38;;
21270;SDS011;10795;50.796;3.860;2023-11-22T23:28:35;32.22;;;14.38;;
21270;SDS011;10795;50.796;3.860;2023-11-22T23:31:04;23.92;;;11.63;;
21270;SDS011;10795;50.796;3.860;2023-11-22T23:33:30;27.38;;;13.77;;
21270;SDS011;10795;50.796;3.860;2023-11-22T23:35:57;23.08;;;13.05;;
21270;SDS011;10795;50.796;3.860;2023-11-22T23:38:23;27.63;;;13.10;;
21270;SDS011;10795;50.796;3.860;2023-11-22T23:40:49;35.85;;;14.73;;
21270;SDS011;10795;50.796;3.860;2023-11-22T23:43:18;29.30;;;14.05;;
21270;SDS011;10795;50.796;3.860;2023-11-22T23:45:44;25.77;;;13.25;;
21270;SDS011;10795;50.796;3.860;2023-11-22T23:48:10;30.58;;;13.68;;
21270;SDS011;10795;50.796;3.860;2023-11-22T23:50:39;28.02;;;15.20;;
21270;SDS011;10795;50.796;3.860;2023-11-22T23:53:05;25.52;;;13.20;;
21270;SDS011;10795;50.796;3.860;2023-11-22T23:55:33;25.30;;;14.15;;
21270;SDS011;10795;50.796;3.860;2023-11-22T23:57:59;29.15;;;14.88;;
